sensor_id;sensor_type;location;lat;lon;timestamp;P1;durP1;ratioP1;P2;durP2;ratioP2
28481;SDS011;15703;49.588;6.260;2023-08-24T00:02:14;4.80;;;4.32;;
28481;SDS011;15703;49.588;6.260;2023-08-24T00:04:37;5.88;;;3.95;;
28481;SDS011;15703;49.588;6.260;2023-08-24T00:06:59;4.57;;;4.15;;
28481;SDS011;15703;49.588;6.260;2023-08-24T00:09:21;6.20;;;4.40;;
28481;SDS011;15703;49.588;6.260;2023-08-24T00:11:44;4.55;;;4.07;;
28481;SDS011;15703;49.588;6.260;2023-08-24T00:14:06;4.75;;;4.03;;
28481;SDS011;15703;49.588;6.260;2023-08-24T00:16:28;4.88;;;3.83;;
28481;SDS011;15703;49.588;6.260;2023-08-24T00:18:51;5.15;;;4.18;;
28481;SDS011;15703;49.588;6.260;2023-08-24T00:21:14;5.80;;;4.03;;
28481;SDS011;15703;49.588;6.260;2023-08-24T00:23:45;4.40;;;3.97;;
28481;SDS011;15703;49.588;6.260;2023-08-24T00:26:07;5.00;;;4.28;;
28481;SDS011;15703;49.588;6.260;2023-08-24T00:28:30;6.22;;;4.30;;
28481;SDS011;15703;49.588;6.260;2023-08-24T00:30:52;10.02;;;4.55;;
28481;SDS011;15703;49.588;6.260;2023-08-24T00:33:15;6.18;;;3.72;;
28481;SDS011;15703;49.588;6.260;2023-08-24T00:35:37;5.40;;;3.70;;
28481;SDS011;15703;49.588;6.260;2023-08-24T00:37:59;5.32;;;3.85;;
28481;SDS011;15703;49.588;6.260;2023-08-24T00:40:21;7.15;;;4.25;;
28481;SDS011;15703;49.588;6.260;2023-08-24T00:42:44;7.70;;;4.28;;
28481;SDS011;15703;49.588;6.260;2023-08-24T00:45:10;5.75;;;4.10;;
28481;SDS011;15703;49.588;6.260;2023-08-24T00:47:33;5.57;;;3.80;;
28481;SDS011;15703;49.588;6.260;2023-08-24T00:49:55;6.28;;;4.00;;
28481;SDS011;15703;49.588;6.260;2023-08-24T00:52:18;7.68;;;4.55;;
28481;SDS011;15703;49.588;6.260;2023-08-24T00:54:40;8.30;;;5.22;;
28481;SDS011;15703;49.588;6.260;2023-08-24T00:57:04;7.75;;;4.80;;
28481;SDS011;15703;49.588;6.260;2023-08-24T00:59:26;8.77;;;4.88;;
28481;SDS011;15703;49.588;6.260;2023-08-24T01:01:48;5.63;;;4.15;;
28481;SDS011;15703;49.588;6.260;2023-08-24T01:04:13;7.60;;;4.35;;
28481;SDS011;15703;49.588;6.260;2023-08-24T01:06:35;9.80;;;4.35;;
28481;SDS011;15703;49.588;6.260;2023-08-24T01:08:57;6.43;;;3.83;;
28481;SDS011;15703;49.588;6.260;2023-08-24T01:13:57;5.85;;;4.22;;
28481;SDS011;15703;49.588;6.260;2023-08-24T01:16:25;7.28;;;4.57;;
28481;SDS011;15703;49.588;6.260;2023-08-24T01:18:49;6.88;;;4.60;;
28481;SDS011;15703;49.588;6.260;2023-08-24T01:21:12;10.80;;;4.20;;
28481;SDS011;15703;49.588;6.260;2023-08-24T01:23:50;4.95;;;4.30;;
28481;SDS011;15703;49.588;6.260;2023-08-24T01:26:17;5.20;;;4.00;;
28481;SDS011;15703;49.588;6.260;2023-08-24T01:28:40;4.43;;;3.83;;
28481;SDS011;15703;49.588;6.260;2023-08-24T01:31:04;7.75;;;4.68;;
28481;SDS011;15703;49.588;6.260;2023-08-24T01:33:27;5.65;;;4.30;;
28481;SDS011;15703;49.588;6.260;2023-08-24T01:35:49;5.78;;;3.95;;
28481;SDS011;15703;49.588;6.260;2023-08-24T01:38:11;7.00;;;4.97;;
28481;SDS011;15703;49.588;6.260;2023-08-24T01:43:36;7.50;;;4.40;;
28481;SDS011;15703;49.588;6.260;2023-08-24T01:46:05;5.68;;;4.28;;
28481;SDS011;15703;49.588;6.260;2023-08-24T01:48:29;6.45;;;5.20;;
28481;SDS011;15703;49.588;6.260;2023-08-24T01:50:53;7.22;;;4.13;;
28481;SDS011;15703;49.588;6.260;2023-08-24T01:53:15;7.60;;;4.25;;
28481;SDS011;15703;49.588;6.260;2023-08-24T01:55:37;5.05;;;4.30;;
28481;SDS011;15703;49.588;6.260;2023-08-24T01:58:00;7.05;;;4.95;;
28481;SDS011;15703;49.588;6.260;2023-08-24T02:00:23;9.18;;;4.30;;
28481;SDS011;15703;49.588;6.260;2023-08-24T02:02:46;5.03;;;4.55;;
28481;SDS011;15703;49.588;6.260;2023-08-24T02:05:09;9.45;;;4.40;;
28481;SDS011;15703;49.588;6.260;2023-08-24T02:07:31;5.78;;;5.18;;
28481;SDS011;15703;49.588;6.260;2023-08-24T02:09:54;10.55;;;5.05;;
28481;SDS011;15703;49.588;6.260;2023-08-24T02:12:16;7.80;;;4.30;;
28481;SDS011;15703;49.588;6.260;2023-08-24T02:14:38;6.10;;;4.57;;
28481;SDS011;15703;49.588;6.260;2023-08-24T02:17:01;5.30;;;4.30;;
28481;SDS011;15703;49.588;6.260;2023-08-24T02:19:25;5.25;;;4.75;;
28481;SDS011;15703;49.588;6.260;2023-08-24T02:21:47;7.38;;;4.68;;
28481;SDS011;15703;49.588;6.260;2023-08-24T02:24:09;6.93;;;4.50;;
28481;SDS011;15703;49.588;6.260;2023-08-24T02:26:32;5.60;;;4.35;;
28481;SDS011;15703;49.588;6.260;2023-08-24T02:28:54;4.38;;;3.97;;
28481;SDS011;15703;49.588;6.260;2023-08-24T02:31:18;5.65;;;4.15;;
28481;SDS011;15703;49.588;6.260;2023-08-24T02:33:40;6.93;;;4.55;;
28481;SDS011;15703;49.588;6.260;2023-08-24T02:36:03;6.72;;;4.20;;
28481;SDS011;15703;49.588;6.260;2023-08-24T02:38:26;6.82;;;4.28;;
28481;SDS011;15703;49.588;6.260;2023-08-24T02:40:48;6.90;;;4.40;;
28481;SDS011;15703;49.588;6.260;2023-08-24T02:43:10;10.32;;;4.88;;
28481;SDS011;15703;49.588;6.260;2023-08-24T02:45:33;5.07;;;4.57;;
28481;SDS011;15703;49.588;6.260;2023-08-24T02:47:55;7.65;;;4.53;;
28481;SDS011;15703;49.588;6.260;2023-08-24T02:50:18;5.68;;;4.82;;
28481;SDS011;15703;49.588;6.260;2023-08-24T02:52:40;5.50;;;4.38;;
28481;SDS011;15703;49.588;6.260;2023-08-24T02:55:02;7.95;;;4.93;;
28481;SDS011;15703;49.588;6.260;2023-08-24T02:57:25;7.18;;;4.50;;
28481;SDS011;15703;49.588;6.260;2023-08-24T02:59:47;7.10;;;4.57;;
28481;SDS011;15703;49.588;6.260;2023-08-24T03:02:09;4.32;;;3.92;;
28481;SDS011;15703;49.588;6.260;2023-08-24T03:04:32;6.35;;;4.13;;
28481;SDS011;15703;49.588;6.260;2023-08-24T03:06:55;6.00;;;4.18;;
28481;SDS011;15703;49.588;6.260;2023-08-24T03:09:18;5.13;;;4.15;;
28481;SDS011;15703;49.588;6.260;2023-08-24T03:11:40;5.75;;;3.88;;
28481;SDS011;15703;49.588;6.260;2023-08-24T03:14:05;5.82;;;4.75;;
28481;SDS011;15703;49.588;6.260;2023-08-24T03:16:27;6.60;;;4.40;;
28481;SDS011;15703;49.588;6.260;2023-08-24T03:18:50;7.05;;;4.30;;
28481;SDS011;15703;49.588;6.260;2023-08-24T03:21:12;7.05;;;4.63;;
28481;SDS011;15703;49.588;6.260;2023-08-24T03:23:35;5.55;;;4.30;;
28481;SDS011;15703;49.588;6.260;2023-08-24T03:25:57;7.22;;;4.15;;
28481;SDS011;15703;49.588;6.260;2023-08-24T03:28:19;7.07;;;4.05;;
28481;SDS011;15703;49.588;6.260;2023-08-24T03:30:49;6.80;;;4.63;;
28481;SDS011;15703;49.588;6.260;2023-08-24T03:33:13;7.68;;;4.50;;
28481;SDS011;15703;49.588;6.260;2023-08-24T03:35:35;5.40;;;4.10;;
28481;SDS011;15703;49.588;6.260;2023-08-24T03:37:57;4.95;;;4.45;;
28481;SDS011;15703;49.588;6.260;2023-08-24T03:40:20;5.88;;;4.20;;
28481;SDS011;15703;49.588;6.260;2023-08-24T03:42:43;5.10;;;3.83;;
28481;SDS011;15703;49.588;6.260;2023-08-24T03:45:05;4.97;;;4.03;;
28481;SDS011;15703;49.588;6.260;2023-08-24T03:47:27;6.53;;;3.75;;
28481;SDS011;15703;49.588;6.260;2023-08-24T03:49:50;4.80;;;3.55;;
28481;SDS011;15703;49.588;6.260;2023-08-24T03:52:12;4.20;;;3.55;;
28481;SDS011;15703;49.588;6.260;2023-08-24T03:54:35;6.70;;;4.43;;
28481;SDS011;15703;49.588;6.260;2023-08-24T03:56:58;5.45;;;4.03;;
28481;SDS011;15703;49.588;6.260;2023-08-24T03:59:20;5.70;;;3.60;;
28481;SDS011;15703;49.588;6.260;2023-08-24T04:01:43;9.38;;;4.85;;
28481;SDS011;15703;49.588;6.260;2023-08-24T04:04:05;4.25;;;3.70;;
28481;SDS011;15703;49.588;6.260;2023-08-24T04:06:27;6.70;;;3.78;;
28481;SDS011;15703;49.588;6.260;2023-08-24T04:08:50;5.43;;;3.72;;
28481;SDS011;15703;49.588;6.260;2023-08-24T04:11:13;5.30;;;3.55;;
28481;SDS011;15703;49.588;6.260;2023-08-24T04:13:35;4.15;;;3.58;;
28481;SDS011;15703;49.588;6.260;2023-08-24T04:15:58;8.23;;;3.92;;
28481;SDS011;15703;49.588;6.260;2023-08-24T04:18:20;4.55;;;3.65;;
28481;SDS011;15703;49.588;6.260;2023-08-24T04:20:42;4.53;;;3.75;;
28481;SDS011;15703;49.588;6.260;2023-08-24T04:23:05;5.35;;;3.47;;
28481;SDS011;15703;49.588;6.260;2023-08-24T04:25:28;4.80;;;4.03;;
28481;SDS011;15703;49.588;6.260;2023-08-24T04:27:51;7.00;;;4.35;;
28481;SDS011;15703;49.588;6.260;2023-08-24T04:30:14;5.45;;;3.42;;
28481;SDS011;15703;49.588;6.260;2023-08-24T04:32:36;8.13;;;3.55;;
28481;SDS011;15703;49.588;6.260;2023-08-24T04:34:59;5.88;;;3.83;;
28481;SDS011;15703;49.588;6.260;2023-08-24T04:37:21;5.53;;;3.67;;
28481;SDS011;15703;49.588;6.260;2023-08-24T04:39:43;6.18;;;3.40;;
28481;SDS011;15703;49.588;6.260;2023-08-24T04:42:06;4.65;;;4.07;;
28481;SDS011;15703;49.588;6.260;2023-08-24T04:44:28;4.82;;;4.15;;
28481;SDS011;15703;49.588;6.260;2023-08-24T04:46:50;5.80;;;4.18;;
28481;SDS011;15703;49.588;6.260;2023-08-24T04:49:13;5.85;;;4.15;;
28481;SDS011;15703;49.588;6.260;2023-08-24T04:51:35;5.53;;;4.68;;
28481;SDS011;15703;49.588;6.260;2023-08-24T04:53:58;8.00;;;4.35;;
28481;SDS011;15703;49.588;6.260;2023-08-24T04:56:20;5.18;;;4.60;;
28481;SDS011;15703;49.588;6.260;2023-08-24T04:58:51;5.22;;;3.97;;
28481;SDS011;15703;49.588;6.260;2023-08-24T05:01:13;5.53;;;4.28;;
28481;SDS011;15703;49.588;6.260;2023-08-24T05:03:36;7.18;;;3.83;;
28481;SDS011;15703;49.588;6.260;2023-08-24T05:05:58;5.63;;;4.85;;
28481;SDS011;15703;49.588;6.260;2023-08-24T05:08:20;5.85;;;4.00;;
28481;SDS011;15703;49.588;6.260;2023-08-24T05:10:43;8.10;;;4.22;;
28481;SDS011;15703;49.588;6.260;2023-08-24T05:13:05;8.85;;;4.57;;
28481;SDS011;15703;49.588;6.260;2023-08-24T05:15:28;5.15;;;4.50;;
28481;SDS011;15703;49.588;6.260;2023-08-24T05:17:50;6.63;;;4.10;;
28481;SDS011;15703;49.588;6.260;2023-08-24T05:20:17;4.35;;;3.83;;
28481;SDS011;15703;49.588;6.260;2023-08-24T05:22:40;4.55;;;4.15;;
28481;SDS011;15703;49.588;6.260;2023-08-24T05:25:02;5.97;;;4.35;;
28481;SDS011;15703;49.588;6.260;2023-08-24T05:27:26;8.65;;;4.50;;
28481;SDS011;15703;49.588;6.260;2023-08-24T05:29:48;5.72;;;5.15;;
28481;SDS011;15703;49.588;6.260;2023-08-24T05:32:10;8.15;;;4.43;;
28481;SDS011;15703;49.588;6.260;2023-08-24T05:34:33;5.38;;;4.28;;
28481;SDS011;15703;49.588;6.260;2023-08-24T05:36:55;5.00;;;4.50;;
28481;SDS011;15703;49.588;6.260;2023-08-24T05:39:18;6.35;;;4.60;;
28481;SDS011;15703;49.588;6.260;2023-08-24T05:41:40;8.00;;;3.97;;
28481;SDS011;15703;49.588;6.260;2023-08-24T05:44:02;4.05;;;3.67;;
28481;SDS011;15703;49.588;6.260;2023-08-24T05:46:25;6.53;;;4.18;;
28481;SDS011;15703;49.588;6.260;2023-08-24T05:48:47;7.15;;;4.15;;
28481;SDS011;15703;49.588;6.260;2023-08-24T05:51:10;5.10;;;3.40;;
28481;SDS011;15703;49.588;6.260;2023-08-24T05:53:33;4.40;;;3.22;;
28481;SDS011;15703;49.588;6.260;2023-08-24T05:55:59;5.95;;;3.80;;
28481;SDS011;15703;49.588;6.260;2023-08-24T05:58:21;4.82;;;3.35;;
28481;SDS011;15703;49.588;6.260;2023-08-24T06:00:43;7.10;;;4.00;;
28481;SDS011;15703;49.588;6.260;2023-08-24T06:03:07;4.93;;;3.75;;
28481;SDS011;15703;49.588;6.260;2023-08-24T06:05:30;5.13;;;3.30;;
28481;SDS011;15703;49.588;6.260;2023-08-24T06:07:55;5.63;;;3.15;;
28481;SDS011;15703;49.588;6.260;2023-08-24T06:10:17;4.07;;;2.90;;
28481;SDS011;15703;49.588;6.260;2023-08-24T06:12:39;5.28;;;3.20;;
28481;SDS011;15703;49.588;6.260;2023-08-24T06:15:02;5.15;;;3.47;;
28481;SDS011;15703;49.588;6.260;2023-08-24T06:17:25;3.92;;;3.53;;
28481;SDS011;15703;49.588;6.260;2023-08-24T06:19:48;4.47;;;3.40;;
28481;SDS011;15703;49.588;6.260;2023-08-24T06:22:11;4.93;;;3.13;;
28481;SDS011;15703;49.588;6.260;2023-08-24T06:24:33;4.30;;;3.35;;
28481;SDS011;15703;49.588;6.260;2023-08-24T06:26:55;7.93;;;2.80;;
28481;SDS011;15703;49.588;6.260;2023-08-24T06:29:18;4.90;;;3.10;;
28481;SDS011;15703;49.588;6.260;2023-08-24T06:31:40;4.68;;;2.60;;
28481;SDS011;15703;49.588;6.260;2023-08-24T06:34:03;6.70;;;2.80;;
28481;SDS011;15703;49.588;6.260;2023-08-24T06:36:25;6.25;;;2.80;;
28481;SDS011;15703;49.588;6.260;2023-08-24T06:38:47;5.18;;;2.97;;
28481;SDS011;15703;49.588;6.260;2023-08-24T06:41:10;4.75;;;3.08;;
28481;SDS011;15703;49.588;6.260;2023-08-24T06:43:33;5.10;;;2.88;;
28481;SDS011;15703;49.588;6.260;2023-08-24T06:45:56;5.30;;;3.22;;
28481;SDS011;15703;49.588;6.260;2023-08-24T06:48:18;4.38;;;2.35;;
28481;SDS011;15703;49.588;6.260;2023-08-24T06:50:40;4.57;;;3.10;;
28481;SDS011;15703;49.588;6.260;2023-08-24T06:53:03;3.42;;;2.75;;
28481;SDS011;15703;49.588;6.260;2023-08-24T06:55:26;5.22;;;2.88;;
28481;SDS011;15703;49.588;6.260;2023-08-24T06:57:48;4.88;;;2.40;;
28481;SDS011;15703;49.588;6.260;2023-08-24T07:00:14;4.22;;;2.92;;
28481;SDS011;15703;49.588;6.260;2023-08-24T07:02:36;3.03;;;2.70;;
28481;SDS011;15703;49.588;6.260;2023-08-24T07:04:59;3.63;;;2.53;;
28481;SDS011;15703;49.588;6.260;2023-08-24T07:07:22;5.85;;;2.38;;
28481;SDS011;15703;49.588;6.260;2023-08-24T07:09:44;5.55;;;2.70;;
28481;SDS011;15703;49.588;6.260;2023-08-24T07:12:06;4.88;;;2.30;;
28481;SDS011;15703;49.588;6.260;2023-08-24T07:14:31;4.93;;;2.33;;
28481;SDS011;15703;49.588;6.260;2023-08-24T07:16:53;7.45;;;2.50;;
28481;SDS011;15703;49.588;6.260;2023-08-24T07:19:15;9.50;;;2.90;;
28481;SDS011;15703;49.588;6.260;2023-08-24T07:21:38;4.90;;;2.30;;
28481;SDS011;15703;49.588;6.260;2023-08-24T07:24:00;4.35;;;2.10;;
28481;SDS011;15703;49.588;6.260;2023-08-24T07:26:22;4.82;;;2.13;;
28481;SDS011;15703;49.588;6.260;2023-08-24T07:28:46;5.32;;;2.45;;
28481;SDS011;15703;49.588;6.260;2023-08-24T07:31:09;5.30;;;2.40;;
28481;SDS011;15703;49.588;6.260;2023-08-24T07:33:32;3.67;;;2.13;;
28481;SDS011;15703;49.588;6.260;2023-08-24T07:35:54;5.13;;;2.15;;
28481;SDS011;15703;49.588;6.260;2023-08-24T07:38:16;3.40;;;2.10;;
28481;SDS011;15703;49.588;6.260;2023-08-24T07:40:39;4.72;;;2.35;;
28481;SDS011;15703;49.588;6.260;2023-08-24T07:43:01;8.95;;;2.50;;
28481;SDS011;15703;49.588;6.260;2023-08-24T07:45:23;3.55;;;2.00;;
28481;SDS011;15703;49.588;6.260;2023-08-24T07:47:46;6.38;;;2.70;;
28481;SDS011;15703;49.588;6.260;2023-08-24T07:50:20;4.05;;;2.42;;
28481;SDS011;15703;49.588;6.260;2023-08-24T07:52:44;5.88;;;2.40;;
28481;SDS011;15703;49.588;6.260;2023-08-24T07:55:07;3.55;;;2.60;;
28481;SDS011;15703;49.588;6.260;2023-08-24T07:57:29;2.80;;;2.25;;
28481;SDS011;15703;49.588;6.260;2023-08-24T07:59:52;4.75;;;2.17;;
28481;SDS011;15703;49.588;6.260;2023-08-24T08:02:15;3.63;;;2.00;;
28481;SDS011;15703;49.588;6.260;2023-08-24T08:04:37;5.72;;;2.05;;
28481;SDS011;15703;49.588;6.260;2023-08-24T08:07:06;5.40;;;2.35;;
28481;SDS011;15703;49.588;6.260;2023-08-24T08:09:28;4.03;;;2.08;;
28481;SDS011;15703;49.588;6.260;2023-08-24T08:11:51;5.03;;;2.00;;
28481;SDS011;15703;49.588;6.260;2023-08-24T08:14:14;5.07;;;2.25;;
28481;SDS011;15703;49.588;6.260;2023-08-24T08:16:37;3.55;;;2.17;;
28481;SDS011;15703;49.588;6.260;2023-08-24T08:18:59;2.83;;;1.98;;
28481;SDS011;15703;49.588;6.260;2023-08-24T08:21:21;3.55;;;1.90;;
28481;SDS011;15703;49.588;6.260;2023-08-24T08:23:44;4.45;;;1.92;;
28481;SDS011;15703;49.588;6.260;2023-08-24T08:26:07;3.38;;;2.10;;
28481;SDS011;15703;49.588;6.260;2023-08-24T08:28:29;3.05;;;2.03;;
28481;SDS011;15703;49.588;6.260;2023-08-24T08:30:54;4.05;;;1.75;;
28481;SDS011;15703;49.588;6.260;2023-08-24T08:33:17;3.65;;;2.28;;
28481;SDS011;15703;49.588;6.260;2023-08-24T08:35:40;7.65;;;2.00;;
28481;SDS011;15703;49.588;6.260;2023-08-24T08:38:05;3.33;;;2.35;;
28481;SDS011;15703;49.588;6.260;2023-08-24T08:40:29;2.92;;;2.00;;
28481;SDS011;15703;49.588;6.260;2023-08-24T08:42:52;3.90;;;1.98;;
28481;SDS011;15703;49.588;6.260;2023-08-24T08:45:14;2.35;;;1.88;;
28481;SDS011;15703;49.588;6.260;2023-08-24T08:47:37;2.95;;;1.70;;
28481;SDS011;15703;49.588;6.260;2023-08-24T08:50:03;2.25;;;1.52;;
28481;SDS011;15703;49.588;6.260;2023-08-24T08:52:26;2.38;;;1.80;;
28481;SDS011;15703;49.588;6.260;2023-08-24T08:54:48;4.72;;;1.75;;
28481;SDS011;15703;49.588;6.260;2023-08-24T08:57:10;4.75;;;2.03;;
28481;SDS011;15703;49.588;6.260;2023-08-24T08:59:33;4.80;;;2.40;;
28481;SDS011;15703;49.588;6.260;2023-08-24T09:01:56;3.75;;;1.63;;
28481;SDS011;15703;49.588;6.260;2023-08-24T09:04:22;2.97;;;2.00;;
28481;SDS011;15703;49.588;6.260;2023-08-24T09:06:45;2.85;;;1.50;;
28481;SDS011;15703;49.588;6.260;2023-08-24T09:09:08;3.63;;;2.13;;
28481;SDS011;15703;49.588;6.260;2023-08-24T09:11:30;3.53;;;1.83;;
28481;SDS011;15703;49.588;6.260;2023-08-24T09:13:53;6.03;;;2.03;;
28481;SDS011;15703;49.588;6.260;2023-08-24T09:16:15;2.33;;;1.70;;
28481;SDS011;15703;49.588;6.260;2023-08-24T09:18:38;3.72;;;1.65;;
28481;SDS011;15703;49.588;6.260;2023-08-24T09:21:07;3.95;;;1.70;;
28481;SDS011;15703;49.588;6.260;2023-08-24T09:23:29;3.03;;;1.77;;
28481;SDS011;15703;49.588;6.260;2023-08-24T09:25:52;4.10;;;1.85;;
28481;SDS011;15703;49.588;6.260;2023-08-24T09:28:15;3.40;;;1.65;;
28481;SDS011;15703;49.588;6.260;2023-08-24T09:30:44;3.60;;;1.90;;
28481;SDS011;15703;49.588;6.260;2023-08-24T09:33:09;3.60;;;2.00;;
28481;SDS011;15703;49.588;6.260;2023-08-24T09:35:34;3.00;;;1.83;;
28481;SDS011;15703;49.588;6.260;2023-08-24T09:37:59;4.03;;;1.98;;
28481;SDS011;15703;49.588;6.260;2023-08-24T09:40:24;2.17;;;1.75;;
28481;SDS011;15703;49.588;6.260;2023-08-24T09:42:47;4.35;;;1.77;;
28481;SDS011;15703;49.588;6.260;2023-08-24T09:45:13;3.88;;;2.00;;
28481;SDS011;15703;49.588;6.260;2023-08-24T09:47:36;6.70;;;1.90;;
28481;SDS011;15703;49.588;6.260;2023-08-24T09:49:59;6.75;;;2.08;;
28481;SDS011;15703;49.588;6.260;2023-08-24T09:52:22;5.55;;;2.08;;
28481;SDS011;15703;49.588;6.260;2023-08-24T09:54:45;7.13;;;2.13;;
28481;SDS011;15703;49.588;6.260;2023-08-24T09:57:07;2.47;;;1.67;;
28481;SDS011;15703;49.588;6.260;2023-08-24T09:59:31;2.60;;;1.67;;
28481;SDS011;15703;49.588;6.260;2023-08-24T10:01:54;3.00;;;2.00;;
28481;SDS011;15703;49.588;6.260;2023-08-24T10:04:23;3.78;;;1.90;;
28481;SDS011;15703;49.588;6.260;2023-08-24T10:06:47;4.65;;;1.88;;
28481;SDS011;15703;49.588;6.260;2023-08-24T10:09:11;2.47;;;1.65;;
28481;SDS011;15703;49.588;6.260;2023-08-24T10:11:38;2.60;;;1.83;;
28481;SDS011;15703;49.588;6.260;2023-08-24T10:16:28;2.88;;;1.75;;
28481;SDS011;15703;49.588;6.260;2023-08-24T10:18:51;1.92;;;1.77;;
28481;SDS011;15703;49.588;6.260;2023-08-24T10:21:14;2.45;;;1.60;;
28481;SDS011;15703;49.588;6.260;2023-08-24T10:23:37;2.50;;;2.03;;
28481;SDS011;15703;49.588;6.260;2023-08-24T10:26:02;6.57;;;1.90;;
28481;SDS011;15703;49.588;6.260;2023-08-24T10:28:26;6.38;;;2.30;;
28481;SDS011;15703;49.588;6.260;2023-08-24T10:30:48;3.47;;;1.92;;
28481;SDS011;15703;49.588;6.260;2023-08-24T10:33:11;5.80;;;2.38;;
28481;SDS011;15703;49.588;6.260;2023-08-24T10:35:34;3.55;;;2.55;;
28481;SDS011;15703;49.588;6.260;2023-08-24T10:37:58;7.72;;;2.13;;
28481;SDS011;15703;49.588;6.260;2023-08-24T10:40:31;3.10;;;2.33;;
28481;SDS011;15703;49.588;6.260;2023-08-24T10:42:53;2.33;;;1.98;;
28481;SDS011;15703;49.588;6.260;2023-08-24T10:45:17;3.83;;;2.03;;
28481;SDS011;15703;49.588;6.260;2023-08-24T10:47:46;3.05;;;1.90;;
28481;SDS011;15703;49.588;6.260;2023-08-24T10:50:08;5.15;;;2.10;;
28481;SDS011;15703;49.588;6.260;2023-08-24T10:54:57;3.05;;;1.88;;
28481;SDS011;15703;49.588;6.260;2023-08-24T10:57:22;2.95;;;1.95;;
28481;SDS011;15703;49.588;6.260;2023-08-24T10:59:45;2.40;;;1.98;;
28481;SDS011;15703;49.588;6.260;2023-08-24T11:02:21;2.80;;;2.40;;
28481;SDS011;15703;49.588;6.260;2023-08-24T11:07:25;3.75;;;2.03;;
28481;SDS011;15703;49.588;6.260;2023-08-24T11:09:54;5.13;;;2.08;;
28481;SDS011;15703;49.588;6.260;2023-08-24T11:12:26;3.40;;;1.90;;
28481;SDS011;15703;49.588;6.260;2023-08-24T11:14:51;2.28;;;2.03;;
28481;SDS011;15703;49.588;6.260;2023-08-24T11:17:31;3.95;;;2.50;;
28481;SDS011;15703;49.588;6.260;2023-08-24T11:19:54;6.57;;;2.15;;
28481;SDS011;15703;49.588;6.260;2023-08-24T11:22:17;2.72;;;2.47;;
28481;SDS011;15703;49.588;6.260;2023-08-24T11:24:39;3.03;;;2.25;;
28481;SDS011;15703;49.588;6.260;2023-08-24T11:27:02;2.90;;;2.47;;
28481;SDS011;15703;49.588;6.260;2023-08-24T11:29:24;7.95;;;3.05;;
28481;SDS011;15703;49.588;6.260;2023-08-24T11:31:47;4.32;;;2.63;;
28481;SDS011;15703;49.588;6.260;2023-08-24T11:34:10;2.67;;;2.17;;
28481;SDS011;15703;49.588;6.260;2023-08-24T11:36:38;4.55;;;2.67;;
28481;SDS011;15703;49.588;6.260;2023-08-24T11:39:03;5.32;;;2.53;;
28481;SDS011;15703;49.588;6.260;2023-08-24T11:41:26;5.20;;;2.75;;
28481;SDS011;15703;49.588;6.260;2023-08-24T11:43:48;4.95;;;3.13;;
28481;SDS011;15703;49.588;6.260;2023-08-24T11:46:17;4.82;;;2.83;;
28481;SDS011;15703;49.588;6.260;2023-08-24T11:48:40;6.40;;;2.95;;
28481;SDS011;15703;49.588;6.260;2023-08-24T11:51:03;5.95;;;2.90;;
28481;SDS011;15703;49.588;6.260;2023-08-24T11:53:25;8.60;;;3.05;;
28481;SDS011;15703;49.588;6.260;2023-08-24T11:55:49;7.97;;;4.05;;
28481;SDS011;15703;49.588;6.260;2023-08-24T11:58:25;5.80;;;3.42;;
28481;SDS011;15703;49.588;6.260;2023-08-24T12:00:47;5.95;;;2.88;;
28481;SDS011;15703;49.588;6.260;2023-08-24T12:03:10;4.25;;;2.78;;
28481;SDS011;15703;49.588;6.260;2023-08-24T12:05:33;4.20;;;3.03;;
28481;SDS011;15703;49.588;6.260;2023-08-24T12:07:55;7.40;;;3.83;;
28481;SDS011;15703;49.588;6.260;2023-08-24T12:10:18;5.72;;;3.80;;
28481;SDS011;15703;49.588;6.260;2023-08-24T12:12:40;7.13;;;3.75;;
28481;SDS011;15703;49.588;6.260;2023-08-24T12:15:03;4.75;;;3.97;;
28481;SDS011;15703;49.588;6.260;2023-08-24T12:17:25;5.28;;;3.72;;
28481;SDS011;15703;49.588;6.260;2023-08-24T12:20:00;5.13;;;3.65;;
28481;SDS011;15703;49.588;6.260;2023-08-24T12:22:27;5.82;;;4.20;;
28481;SDS011;15703;49.588;6.260;2023-08-24T12:24:51;5.20;;;3.92;;
28481;SDS011;15703;49.588;6.260;2023-08-24T12:27:20;4.20;;;3.75;;
28481;SDS011;15703;49.588;6.260;2023-08-24T12:29:46;4.22;;;3.65;;
28481;SDS011;15703;49.588;6.260;2023-08-24T12:32:09;5.85;;;3.50;;
28481;SDS011;15703;49.588;6.260;2023-08-24T12:34:31;5.15;;;3.25;;
28481;SDS011;15703;49.588;6.260;2023-08-24T12:36:53;6.80;;;3.00;;
28481;SDS011;15703;49.588;6.260;2023-08-24T12:39:16;5.43;;;3.30;;
28481;SDS011;15703;49.588;6.260;2023-08-24T12:41:38;4.78;;;3.47;;
28481;SDS011;15703;49.588;6.260;2023-08-24T12:44:01;3.30;;;2.95;;
28481;SDS011;15703;49.588;6.260;2023-08-24T12:46:27;2.83;;;2.25;;
28481;SDS011;15703;49.588;6.260;2023-08-24T12:48:49;3.38;;;2.70;;
28481;SDS011;15703;49.588;6.260;2023-08-24T12:51:16;4.25;;;2.67;;
28481;SDS011;15703;49.588;6.260;2023-08-24T12:53:39;4.63;;;2.47;;
28481;SDS011;15703;49.588;6.260;2023-08-24T12:56:01;4.00;;;2.63;;
28481;SDS011;15703;49.588;6.260;2023-08-24T12:58:23;3.08;;;2.72;;
28481;SDS011;15703;49.588;6.260;2023-08-24T13:00:46;3.08;;;2.78;;
28481;SDS011;15703;49.588;6.260;2023-08-24T13:03:10;7.57;;;2.72;;
28481;SDS011;15703;49.588;6.260;2023-08-24T13:05:32;4.32;;;2.58;;
28481;SDS011;15703;49.588;6.260;2023-08-24T13:07:55;3.35;;;2.17;;
28481;SDS011;15703;49.588;6.260;2023-08-24T13:10:18;4.35;;;2.72;;
28481;SDS011;15703;49.588;6.260;2023-08-24T13:12:40;3.72;;;2.70;;
28481;SDS011;15703;49.588;6.260;2023-08-24T13:15:03;3.10;;;2.60;;
28481;SDS011;15703;49.588;6.260;2023-08-24T13:17:25;4.35;;;3.15;;
28481;SDS011;15703;49.588;6.260;2023-08-24T13:19:48;3.65;;;2.30;;
28481;SDS011;15703;49.588;6.260;2023-08-24T13:22:10;3.65;;;2.55;;
28481;SDS011;15703;49.588;6.260;2023-08-24T13:24:33;2.95;;;2.60;;
28481;SDS011;15703;49.588;6.260;2023-08-24T13:26:55;4.07;;;2.70;;
28481;SDS011;15703;49.588;6.260;2023-08-24T13:29:18;4.30;;;2.80;;
28481;SDS011;15703;49.588;6.260;2023-08-24T13:31:40;5.47;;;3.20;;
28481;SDS011;15703;49.588;6.260;2023-08-24T13:34:02;5.50;;;3.15;;
28481;SDS011;15703;49.588;6.260;2023-08-24T13:36:28;7.05;;;3.22;;
28481;SDS011;15703;49.588;6.260;2023-08-24T13:38:51;2.75;;;2.25;;
28481;SDS011;15703;49.588;6.260;2023-08-24T13:41:13;6.10;;;2.67;;
28481;SDS011;15703;49.588;6.260;2023-08-24T13:43:36;6.45;;;3.20;;
28481;SDS011;15703;49.588;6.260;2023-08-24T13:45:59;3.28;;;2.17;;
28481;SDS011;15703;49.588;6.260;2023-08-24T13:48:25;4.00;;;2.70;;
28481;SDS011;15703;49.588;6.260;2023-08-24T13:50:51;6.25;;;2.70;;
28481;SDS011;15703;49.588;6.260;2023-08-24T13:53:13;4.32;;;2.70;;
28481;SDS011;15703;49.588;6.260;2023-08-24T13:55:36;6.55;;;2.72;;
28481;SDS011;15703;49.588;6.260;2023-08-24T13:57:59;4.10;;;2.67;;
28481;SDS011;15703;49.588;6.260;2023-08-24T14:00:22;3.67;;;2.63;;
28481;SDS011;15703;49.588;6.260;2023-08-24T14:02:50;3.90;;;2.63;;
28481;SDS011;15703;49.588;6.260;2023-08-24T14:05:12;3.50;;;2.35;;
28481;SDS011;15703;49.588;6.260;2023-08-24T14:07:35;3.90;;;3.20;;
28481;SDS011;15703;49.588;6.260;2023-08-24T14:09:57;3.15;;;2.53;;
28481;SDS011;15703;49.588;6.260;2023-08-24T14:12:26;5.28;;;2.30;;
28481;SDS011;15703;49.588;6.260;2023-08-24T14:14:49;5.78;;;2.38;;
28481;SDS011;15703;49.588;6.260;2023-08-24T14:17:11;4.07;;;2.28;;
28481;SDS011;15703;49.588;6.260;2023-08-24T14:19:33;3.38;;;2.20;;
28481;SDS011;15703;49.588;6.260;2023-08-24T14:21:55;4.88;;;2.38;;
28481;SDS011;15703;49.588;6.260;2023-08-24T14:24:19;3.95;;;2.38;;
28481;SDS011;15703;49.588;6.260;2023-08-24T14:26:43;4.95;;;2.55;;
28481;SDS011;15703;49.588;6.260;2023-08-24T14:29:08;4.88;;;2.30;;
28481;SDS011;15703;49.588;6.260;2023-08-24T14:31:31;3.42;;;2.20;;
28481;SDS011;15703;49.588;6.260;2023-08-24T14:33:53;2.67;;;1.70;;
28481;SDS011;15703;49.588;6.260;2023-08-24T14:36:15;3.28;;;1.73;;
28481;SDS011;15703;49.588;6.260;2023-08-24T14:38:38;3.88;;;1.58;;